Currently 70°F in Lake Elsinore, California, USA
70°F
70°F / 46°F
calm
0.00"
Wednesday, October 28, 2020 10:24 AM PDT

Lake Elsinore, California Weather Summary
Last 36 Hours

Temperature Winds Hourly Humidity Dewpoint
Time Report Norm Report Norm Max Gusts Precip. Rpt. Norm Rpt. Norm Pressure
1,2Wed 10:24 AM  70.5°F  72°F  calm  2 mph  none  0.00"  20%  48%  25°F  50°F  N/A
Wed 10:00 AM  66.6°F  70°F  calm  1 mph  5 mph  0.00"  33%  52%  35°F  51°F  N/A
Wed 09:00 AM  62.3°F  65°F  calm  1 mph  3 mph  0.00"  45%  63%  40°F  51°F  N/A
Wed 08:00 AM  48.3°F  56°F  calm  1 mph  none  0.00"  59%  74%  34°F  48°F  N/A
3Wed 07:30 AM  45.7°F  54°F  calm  1 mph  none  ----  63%  75%  33°F  46°F  N/A
Wed 07:00 AM  46.0°F  53°F  calm  calm  none  0.00"  62%  75%  33°F  45°F  N/A
Wed 06:00 AM  46.8°F  53°F  calm  calm  none  0.00"  58%  74%  32°F  45°F  N/A
Wed 05:00 AM  47.5°F  54°F  calm  1 mph  none  0.00"  58%  73%  33°F  45°F  N/A
Wed 04:00 AM  48.4°F  55°F  calm  1 mph  none  0.00"  54%  72%  32°F  45°F  N/A
Wed 03:00 AM  49.5°F  56°F  calm  calm  none  0.00"  52%  71%  32°F  46°F  N/A
Wed 02:00 AM  50.9°F  56°F  calm  1 mph  none  0.00"  47%  70%  30°F  46°F  N/A
Wed 01:00 AM  53.4°F  57°F  calm  calm  1 mph  0.00"  44%  68%  31°F  47°F  N/A
Wed 12:00 AM  55.9°F  59°F  calm  1 mph  2 mph  0.00"  42%  66%  32°F  47°F  N/A
Tue 11:00 PM  59.6°F  60°F  calm  1 mph  6 mph  0.00"  38%  63%  33°F  47°F  N/A
Tue 10:00 PM  60.8°F  62°F  1 mph NE  1 mph  7 mph  0.00"  28%  61%  26°F  48°F  N/A
Tue 09:00 PM  62.2°F  64°F  2 mph W  1 mph  4 mph  0.00"  22%  58%  21°F  48°F  N/A
Tue 08:00 PM  65.1°F  66°F  calm  1 mph  6 mph  0.00"  13%  54%  11°F  49°F  N/A
Tue 07:00 PM  69.0°F  70°F  3 mph NW  2 mph  9 mph  0.00"  9%  48%  6°F  48°F  N/A
Tue 06:00 PM  72.6°F  74°F  1 mph NW  2 mph  12 mph  0.00"  10%  42%  10°F  48°F  N/A
Tue 05:00 PM  77.0°F  79°F  3 mph SW  3 mph  17 mph  0.00"  7%  34%  6°F  48°F  N/A
Tue 04:00 PM  80.2°F  82°F  1 mph S  4 mph  12 mph  0.00"  5%  31%  2°F  47°F  N/A
Tue 03:00 PM  80.6°F  83°F  4 mph S  3 mph  13 mph  0.00"  5%  29%  -1°F  47°F  N/A
Tue 02:00 PM  81.7°F  82°F  4 mph NW  3 mph  12 mph  0.00"  4%  29%  -5°F  46°F  N/A
Tue 01:00 PM  81.5°F  81°F  1 mph S  3 mph  15 mph  0.00"  4%  31%  -3°F  47°F  N/A
Tue 12:00 PM  79.2°F  78°F  6 mph W  2 mph  14 mph  0.00"  4%  36%  -6°F  48°F  N/A
Tue 11:00 AM  77.1°F  74°F  3 mph E  2 mph  12 mph  0.00"  5%  43%  -1°F  50°F  N/A
Tue 10:00 AM  73.9°F  70°F  1 mph NW  2 mph  13 mph  0.00"  6%  53%  -2°F  51°F  N/A
Tue 09:00 AM  67.9°F  65°F  2 mph NE  1 mph  10 mph  0.00"  10%  63%  8°F  52°F  N/A
Tue 08:00 AM  55.3°F  56°F  2 mph S  1 mph  10 mph  0.00"  33%  74%  26°F  48°F  N/A
Tue 07:00 AM  50.8°F  54°F  calm  1 mph  5 mph  0.00"  43%  75%  28°F  46°F  N/A
Tue 06:00 AM  54.3°F  54°F  1 mph E  calm  9 mph  0.00"  35%  74%  26°F  45°F  N/A
Tue 05:00 AM  58.3°F  54°F  4 mph E  1 mph  17 mph  0.00"  22%  73%  18°F  46°F  N/A
Tue 04:00 AM  62.9°F  55°F  7 mph W  1 mph  20 mph  0.00"  5%  72%  -11°F  46°F  N/A
Tue 03:00 AM  62.0°F  56°F  2 mph W  calm  20 mph  0.00"  5%  71%  -12°F  46°F  N/A
Tue 02:00 AM  60.4°F  57°F  1 mph E  1 mph  12 mph  0.00"  9%  70%  -1°F  47°F  N/A
Tue 01:00 AM  60.6°F  58°F  7 mph W  calm  16 mph  0.00"  5%  68%  -13°F  47°F  N/A
Tue 12:00 AM  60.1°F  59°F  5 mph NW  1 mph  16 mph  0.00"  6%  66%  -13°F  47°F  N/A
Mon 11:00 PM  61.1°F  61°F  5 mph NW  1 mph  17 mph  0.00"  5%  64%  -12°F  48°F  N/A

  1. Current weather data. No green row appears if the current weather data is also the high or low for the current day.
  2. High temperature for the current day.
  3. Low temperature for the current day.

The Lake Elsinore, California weather pages are a service of WeatherCurrents. Lake Elsinore is located south of Corona and north of the Temecula Valley, in southwestern Riverside County, California.
Copyright ©2020  WeatherCurrents. All rights reserved. - Submit questions and comments - Privacy Policy

This page automatically refreshes every 10 minutes.